createdAt,value
2016-10-19T00:00:42.444Z,9.12
2016-10-19T00:01:42.429Z,9.09
2016-10-19T00:02:42.980Z,9.12
2016-10-19T00:03:42.474Z,9.13
2016-10-19T00:04:42.541Z,9.1
2016-10-19T00:05:42.489Z,9.06
2016-10-19T00:06:42.853Z,9.18
2016-10-19T00:07:42.492Z,9.23
2016-10-19T00:08:42.485Z,9.28
2016-10-19T00:09:42.705Z,9.25
2016-10-19T00:10:42.654Z,9.12
2016-10-19T00:11:42.885Z,9.28
2016-10-19T00:12:44.182Z,9.3
2016-10-19T00:13:42.741Z,9.38
2016-10-19T00:14:42.474Z,9.27
2016-10-19T00:15:42.775Z,9.28
2016-10-19T00:16:42.484Z,9.31
2016-10-19T00:17:42.709Z,9.35
2016-10-19T00:18:43.000Z,9.46
2016-10-19T00:19:42.536Z,9.38
2016-10-19T00:20:43.227Z,9.38
2016-10-19T00:21:42.721Z,9.27
2016-10-19T00:22:42.496Z,9.39
2016-10-19T00:23:42.505Z,9.43
2016-10-19T00:24:42.589Z,9.39
2016-10-19T00:25:43.329Z,9.46
2016-10-19T00:26:43.602Z,9.5
2016-10-19T00:27:43.138Z,9.43
2016-10-19T00:28:42.543Z,9.56
2016-10-19T00:29:42.546Z,9.46
2016-10-19T00:30:42.483Z,9.43
2016-10-19T00:31:42.489Z,9.61
2016-10-19T00:32:42.570Z,9.52
2016-10-19T00:33:42.777Z,9.49
2016-10-19T00:34:43.490Z,9.6
2016-10-19T00:35:42.591Z,9.61
2016-10-19T00:36:42.511Z,9.56
2016-10-19T00:37:43.219Z,9.79
2016-10-19T00:38:42.495Z,9.64
2016-10-19T00:39:42.798Z,9.71
2016-10-19T00:40:42.496Z,9.75
2016-10-19T00:41:42.486Z,9.64
2016-10-19T00:42:42.846Z,9.68
2016-10-19T00:43:42.507Z,9.67
2016-10-19T00:44:42.684Z,9.79
2016-10-19T00:45:42.574Z,9.83
2016-10-19T00:46:42.898Z,9.81
2016-10-19T00:47:43.490Z,9.78
2016-10-19T00:48:42.494Z,9.63
2016-10-19T00:49:42.687Z,9.75
2016-10-19T00:50:42.432Z,9.78
2016-10-19T00:51:42.894Z,9.68
2016-10-19T00:52:42.486Z,9.76
2016-10-19T00:53:42.553Z,9.66
2016-10-19T00:54:42.500Z,9.7
2016-10-19T00:55:42.492Z,9.76
2016-10-19T00:56:42.573Z,9.89
2016-10-19T00:57:42.523Z,9.76
2016-10-19T00:58:42.472Z,9.6
2016-10-19T00:59:42.626Z,9.66
2016-10-19T01:00:42.684Z,9.79
2016-10-19T01:01:43.145Z,9.66
2016-10-19T01:02:43.758Z,9.61
2016-10-19T01:03:42.576Z,9.64
2016-10-19T01:04:42.833Z,9.58
2016-10-19T01:05:42.613Z,9.58
2016-10-19T01:06:42.762Z,9.57
2016-10-19T01:07:42.580Z,9.6
2016-10-19T01:08:42.635Z,9.49
2016-10-19T01:09:42.539Z,9.38
2016-10-19T01:10:42.560Z,9.39
2016-10-19T01:11:43.044Z,9.28
2016-10-19T01:12:42.498Z,9.21
2016-10-19T01:13:42.740Z,9.21
2016-10-19T01:14:43.551Z,9.1
2016-10-19T01:15:44.141Z,9.04
2016-10-19T01:16:42.478Z,9.02
2016-10-19T01:17:43.518Z,8.97
2016-10-19T01:18:42.538Z,8.96
2016-10-19T01:19:42.560Z,9.09
2016-10-19T01:20:43.310Z,8.88
2016-10-19T01:21:43.045Z,8.91
2016-10-19T01:22:43.298Z,8.86
2016-10-19T01:23:42.520Z,8.88
2016-10-19T01:24:42.617Z,8.91
2016-10-19T01:25:42.516Z,8.87
2016-10-19T01:26:43.198Z,8.83
2016-10-19T01:27:42.904Z,8.79
2016-10-19T01:28:43.069Z,8.86
2016-10-19T01:29:42.621Z,8.72
2016-10-19T01:30:43.389Z,8.66
2016-10-19T01:31:42.494Z,8.69
2016-10-19T01:32:42.526Z,8.75
2016-10-19T01:33:42.500Z,8.71
2016-10-19T01:34:42.503Z,8.68
2016-10-19T01:35:43.153Z,8.68
2016-10-19T01:36:43.109Z,8.62
2016-10-19T01:37:42.568Z,8.6
2016-10-19T01:38:42.516Z,8.54
2016-10-19T01:39:42.513Z,8.57
2016-10-19T01:40:42.549Z,8.57
2016-10-19T01:41:42.495Z,8.39
2016-10-19T01:42:42.504Z,8.55
2016-10-19T01:43:42.609Z,8.44
2016-10-19T01:44:42.609Z,8.44
2016-10-19T01:45:42.504Z,8.53
2016-10-19T01:46:42.526Z,8.47
2016-10-19T01:47:43.313Z,8.37
2016-10-19T01:48:42.534Z,8.39
2016-10-19T01:49:42.529Z,8.47
2016-10-19T01:50:42.624Z,8.39
2016-10-19T01:51:42.513Z,8.35
2016-10-19T01:52:42.536Z,8.32
2016-10-19T01:53:42.551Z,8.26
2016-10-19T01:54:42.564Z,8.3
2016-10-19T01:55:42.556Z,8.3
2016-10-19T01:56:43.182Z,8.28
2016-10-19T01:57:42.607Z,8.33
2016-10-19T01:58:42.535Z,8.22
2016-10-19T01:59:42.558Z,8.21
2016-10-19T02:00:42.571Z,8.22
2016-10-19T02:01:42.513Z,8.15
2016-10-19T02:02:42.724Z,8.2
2016-10-19T02:03:42.564Z,8.15
2016-10-19T02:04:42.730Z,8.2
2016-10-19T02:05:42.540Z,8.03
2016-10-19T02:06:42.590Z,8.25
2016-10-19T02:07:42.584Z,8.12
2016-10-19T02:08:42.590Z,8.11
2016-10-19T02:09:42.536Z,8.14
2016-10-19T02:10:43.336Z,8.12
2016-10-19T02:11:42.622Z,8.22
2016-10-19T02:12:42.540Z,8.15
2016-10-19T02:13:42.602Z,8.11
2016-10-19T02:14:42.580Z,8.17
2016-10-19T02:15:42.526Z,8.04
2016-10-19T02:16:42.533Z,8.11
2016-10-19T02:17:42.661Z,8.08
2016-10-19T02:18:42.577Z,8.08
2016-10-19T02:19:42.532Z,8.07
2016-10-19T02:20:42.586Z,7.99
2016-10-19T02:21:42.531Z,8.02
2016-10-19T02:22:42.573Z,7.97
2016-10-19T02:23:42.623Z,8.15
2016-10-19T02:24:42.572Z,8.07
2016-10-19T02:25:42.599Z,8
2016-10-19T02:26:42.603Z,8.11
2016-10-19T02:27:42.670Z,8.02
2016-10-19T02:28:42.635Z,7.96
2016-10-19T02:29:42.571Z,8.11
2016-10-19T02:30:42.581Z,8.07
2016-10-19T02:31:42.635Z,8.12
2016-10-19T02:32:43.240Z,8.07
2016-10-19T02:33:42.607Z,8.08
2016-10-19T02:34:42.604Z,8.04
2016-10-19T02:35:42.607Z,8.1
2016-10-19T02:36:42.585Z,8.04
2016-10-19T02:37:42.530Z,8
2016-10-19T02:38:42.536Z,8
2016-10-19T02:39:42.529Z,7.99
2016-10-19T02:40:42.568Z,8.08
2016-10-19T02:41:42.562Z,8.11
2016-10-19T02:42:42.575Z,7.99
2016-10-19T02:43:42.508Z,8.14
2016-10-19T02:44:42.601Z,8.11
2016-10-19T02:45:42.553Z,8.11
2016-10-19T02:46:42.787Z,8.03
2016-10-19T02:47:42.589Z,8.11
2016-10-19T02:48:42.592Z,8.02
2016-10-19T02:49:42.604Z,8
2016-10-19T02:50:42.588Z,8.12
2016-10-19T02:51:42.620Z,8.12
2016-10-19T02:52:42.660Z,8.14
2016-10-19T02:53:42.547Z,8.15
2016-10-19T02:54:42.555Z,8.29
2016-10-19T02:55:42.585Z,8.17
2016-10-19T02:56:42.567Z,8.3
2016-10-19T02:57:42.563Z,8.22
2016-10-19T02:58:42.548Z,8.29
2016-10-19T02:59:42.578Z,8.14
2016-10-19T03:00:42.538Z,8.2
2016-10-19T03:01:42.569Z,8.22
2016-10-19T03:02:42.592Z,8.35
2016-10-19T03:03:42.618Z,8.29
2016-10-19T03:04:42.592Z,8.28
2016-10-19T03:05:42.574Z,8.33
2016-10-19T03:06:42.561Z,8.35
2016-10-19T03:07:42.571Z,8.4
2016-10-19T03:08:42.562Z,8.32
2016-10-19T03:09:42.632Z,8.35
2016-10-19T03:10:42.575Z,8.33
2016-10-19T03:11:42.582Z,8.45
2016-10-19T03:12:42.615Z,8.44
2016-10-19T03:13:42.604Z,8.51
2016-10-19T03:14:42.571Z,8.4
2016-10-19T03:15:42.586Z,8.4
2016-10-19T03:16:42.650Z,8.44
2016-10-19T03:17:42.616Z,8.4
2016-10-19T03:18:42.590Z,8.5
2016-10-19T03:19:42.583Z,8.42
2016-10-19T03:20:42.564Z,8.47
2016-10-19T03:21:42.583Z,8.3
2016-10-19T03:22:42.560Z,8.32
2016-10-19T03:23:42.664Z,8.32
2016-10-19T03:24:42.611Z,8.29
2016-10-19T03:25:42.592Z,8.29
2016-10-19T03:26:42.584Z,8.2
2016-10-19T03:27:42.635Z,8.25
2016-10-19T03:28:42.595Z,8.26
2016-10-19T03:29:42.581Z,8.17
2016-10-19T03:30:42.644Z,8.2
2016-10-19T03:31:42.576Z,8.26
2016-10-19T03:32:42.610Z,8.08
2016-10-19T03:33:42.576Z,8.04
2016-10-19T03:34:42.585Z,8
2016-10-19T03:35:42.623Z,8.15
2016-10-19T03:36:42.571Z,8.11
2016-10-19T03:37:42.646Z,8.11
2016-10-19T03:38:42.599Z,7.93
2016-10-19T03:39:42.639Z,8.02
2016-10-19T03:40:42.635Z,8.1
2016-10-19T03:41:42.718Z,8.02
2016-10-19T03:42:42.660Z,8
2016-10-19T03:43:42.616Z,8.03
2016-10-19T03:44:42.701Z,8.04
2016-10-19T03:45:42.690Z,8.03
2016-10-19T03:46:42.642Z,8.08
2016-10-19T03:47:42.637Z,7.9
2016-10-19T03:48:42.692Z,7.99
2016-10-19T03:49:42.610Z,8.15
2016-10-19T03:50:42.596Z,7.97
2016-10-19T03:51:42.685Z,8.07
2016-10-19T03:52:43.514Z,7.99
2016-10-19T03:53:42.608Z,7.97
2016-10-19T03:54:42.600Z,7.97
2016-10-19T03:55:42.593Z,8.08
2016-10-19T03:56:42.629Z,7.87
2016-10-19T03:57:42.599Z,8.07
2016-10-19T03:58:42.642Z,7.97
2016-10-19T03:59:42.649Z,7.99
2016-10-19T04:00:42.613Z,8.02
2016-10-19T04:01:42.897Z,7.94
2016-10-19T04:02:42.657Z,7.97
2016-10-19T04:03:42.619Z,7.93
2016-10-19T04:04:42.627Z,8
2016-10-19T04:05:42.635Z,7.94
2016-10-19T04:06:42.638Z,7.99
2016-10-19T04:07:42.616Z,8.04
2016-10-19T04:08:42.600Z,7.93
2016-10-19T04:09:42.585Z,8.03
2016-10-19T04:10:42.624Z,7.89
2016-10-19T04:11:42.610Z,7.9
2016-10-19T04:12:42.664Z,7.89
2016-10-19T04:13:42.642Z,7.89
2016-10-19T04:14:42.605Z,7.89
2016-10-19T04:15:42.639Z,7.96
2016-10-19T04:16:42.650Z,8
2016-10-19T04:17:42.645Z,8
2016-10-19T04:18:42.646Z,8.02
2016-10-19T04:19:42.706Z,7.96
2016-10-19T04:20:42.726Z,8.07
2016-10-19T04:21:42.651Z,8.07
2016-10-19T04:22:42.700Z,8.1
2016-10-19T04:23:42.678Z,8.14
2016-10-19T04:24:42.653Z,8.2
2016-10-19T04:25:42.677Z,8.11
2016-10-19T04:26:42.668Z,7.97
2016-10-19T04:27:42.692Z,8.07
2016-10-19T04:28:42.677Z,8.15
2016-10-19T04:29:42.630Z,8.17
2016-10-19T04:30:42.636Z,8.14
2016-10-19T04:31:42.643Z,8.22
2016-10-19T04:32:42.677Z,8.14
2016-10-19T04:33:42.726Z,8.11
2016-10-19T04:34:42.730Z,8.21
2016-10-19T04:35:42.662Z,8.26
2016-10-19T04:36:42.643Z,8.15
2016-10-19T04:37:42.682Z,8.08
2016-10-19T04:38:42.668Z,8.18
2016-10-19T04:39:42.647Z,8.14
2016-10-19T04:40:42.682Z,8.12
2016-10-19T04:41:42.707Z,8.22
2016-10-19T04:42:42.686Z,8.11
2016-10-19T04:43:42.644Z,8.18
2016-10-19T04:44:42.652Z,8.3
2016-10-19T04:45:42.688Z,8.22
2016-10-19T04:46:42.707Z,8.18
2016-10-19T04:47:43.420Z,8.26
2016-10-19T04:48:42.730Z,8.2
2016-10-19T04:49:42.715Z,8.26
2016-10-19T04:50:42.670Z,8.17
2016-10-19T04:51:42.704Z,8.17
2016-10-19T04:52:42.743Z,8.17
2016-10-19T04:53:42.708Z,8.28
2016-10-19T04:54:42.679Z,8.18
2016-10-19T04:55:42.665Z,8.17
2016-10-19T04:56:42.685Z,8.18
2016-10-19T04:57:42.733Z,8.2
2016-10-19T04:58:42.654Z,8.26
2016-10-19T04:59:42.707Z,8.28
2016-10-19T05:00:42.697Z,8.17
2016-10-19T05:01:42.669Z,8.15
2016-10-19T05:02:42.740Z,8.3
2016-10-19T05:03:42.644Z,8.21
2016-10-19T05:04:42.665Z,8.26
2016-10-19T05:05:42.685Z,8.18
2016-10-19T05:06:42.669Z,8.28
2016-10-19T05:07:42.679Z,8.3
2016-10-19T05:08:42.788Z,8.35
2016-10-19T05:09:43.054Z,8.33
2016-10-19T05:10:42.881Z,8.3
2016-10-19T05:11:42.666Z,8.32
2016-10-19T05:12:42.966Z,8.29
2016-10-19T05:13:42.701Z,8.42
2016-10-19T05:14:43.974Z,8.37
2016-10-19T05:15:42.679Z,8.39
2016-10-19T05:16:43.029Z,8.5
2016-10-19T05:17:42.677Z,8.4
2016-10-19T05:18:43.568Z,8.45
2016-10-19T05:19:43.630Z,8.37
2016-10-19T05:20:43.183Z,8.44
2016-10-19T05:21:43.590Z,8.45
2016-10-19T05:22:42.775Z,8.45
2016-10-19T05:23:42.779Z,8.44
2016-10-19T05:24:42.669Z,8.5
2016-10-19T05:25:43.624Z,8.47
2016-10-19T05:26:42.757Z,8.42
2016-10-19T05:27:42.678Z,8.42
2016-10-19T05:28:42.903Z,8.45
2016-10-19T05:29:43.054Z,8.39
2016-10-19T05:30:42.810Z,8.58
2016-10-19T05:31:42.676Z,8.51
2016-10-19T05:32:42.784Z,8.5
2016-10-19T05:33:42.659Z,8.53
2016-10-19T05:34:43.079Z,8.6
2016-10-19T05:35:42.736Z,8.6
2016-10-19T05:36:42.998Z,8.53
2016-10-19T05:37:42.760Z,8.62
2016-10-19T05:38:42.664Z,8.55
2016-10-19T05:39:42.644Z,8.55
2016-10-19T05:40:42.649Z,8.57
2016-10-19T05:41:42.672Z,8.62
2016-10-19T05:42:42.713Z,8.57
2016-10-19T05:43:42.736Z,8.65
2016-10-19T05:44:42.768Z,8.66
2016-10-19T05:45:42.701Z,8.66
2016-10-19T05:46:42.710Z,8.62
2016-10-19T05:47:42.730Z,8.76
2016-10-19T05:48:42.750Z,8.62
2016-10-19T05:49:42.740Z,8.73
2016-10-19T05:50:43.297Z,8.66
2016-10-19T05:51:42.758Z,8.72
2016-10-19T05:52:42.718Z,8.68
2016-10-19T05:53:42.727Z,8.69
2016-10-19T05:54:42.821Z,8.68
2016-10-19T05:55:42.732Z,8.71
2016-10-19T05:56:42.759Z,8.66
2016-10-19T05:57:43.734Z,8.78
2016-10-19T05:58:42.723Z,8.84
2016-10-19T05:59:42.742Z,8.73
2016-10-19T06:00:43.777Z,8.68
2016-10-19T06:01:42.734Z,8.73
2016-10-19T06:02:42.761Z,8.72
2016-10-19T06:03:42.673Z,8.73
2016-10-19T06:04:45.035Z,8.83
2016-10-19T06:05:42.686Z,8.72
2016-10-19T06:06:42.680Z,8.83
2016-10-19T06:07:43.378Z,8.78
2016-10-19T06:08:42.799Z,8.81
2016-10-19T06:09:42.698Z,8.81
2016-10-19T06:10:42.702Z,8.73
2016-10-19T06:11:43.280Z,8.93
2016-10-19T06:12:42.747Z,8.75
2016-10-19T06:13:43.233Z,8.81
2016-10-19T06:14:42.760Z,8.78
2016-10-19T06:15:42.737Z,8.94
2016-10-19T06:16:42.758Z,8.88
2016-10-19T06:17:42.744Z,8.76
2016-10-19T06:18:42.736Z,8.81
2016-10-19T06:19:43.235Z,8.73
2016-10-19T06:20:42.769Z,8.75
2016-10-19T06:21:42.778Z,8.83
2016-10-19T06:22:43.670Z,8.83
2016-10-19T06:23:42.766Z,8.87
2016-10-19T06:24:42.726Z,8.93
2016-10-19T06:25:42.765Z,8.78
2016-10-19T06:26:42.758Z,8.86
2016-10-19T06:27:42.787Z,8.94
2016-10-19T06:28:42.790Z,8.86
2016-10-19T06:29:42.765Z,8.94
2016-10-19T06:30:42.756Z,8.84
2016-10-19T06:31:42.794Z,8.84
2016-10-19T06:32:42.864Z,8.93
2016-10-19T06:33:42.829Z,8.83
2016-10-19T06:34:42.717Z,8.91
2016-10-19T06:35:42.749Z,8.87
2016-10-19T06:36:42.797Z,8.83
2016-10-19T06:37:42.762Z,8.9
2016-10-19T06:38:42.747Z,8.91
2016-10-19T06:39:42.778Z,9.01
2016-10-19T06:40:42.787Z,8.93
2016-10-19T06:41:42.771Z,8.9
2016-10-19T06:42:42.756Z,9.02
2016-10-19T06:43:42.772Z,8.97
2016-10-19T06:44:42.745Z,8.87
2016-10-19T06:45:42.720Z,9.04
2016-10-19T06:46:42.731Z,9.01
2016-10-19T06:47:42.758Z,9.01
2016-10-19T06:48:42.787Z,9.05
2016-10-19T06:49:42.762Z,9.06
2016-10-19T06:50:42.723Z,9.09
2016-10-19T06:51:42.746Z,9.01
2016-10-19T06:52:42.792Z,9.09
2016-10-19T06:53:42.762Z,8.97
2016-10-19T06:54:42.727Z,8.96
2016-10-19T06:55:42.853Z,8.9
2016-10-19T06:56:42.794Z,9.06
2016-10-19T06:57:42.786Z,9.02
2016-10-19T06:58:42.828Z,8.93
2016-10-19T06:59:42.777Z,8.99
2016-10-19T07:00:42.812Z,9.04
2016-10-19T07:01:43.418Z,9.05
2016-10-19T07:02:42.781Z,9.04
2016-10-19T07:03:42.783Z,8.99
2016-10-19T07:04:42.775Z,9.01
2016-10-19T07:05:42.844Z,8.97
2016-10-19T07:06:42.838Z,8.97
2016-10-19T07:07:42.787Z,9.06
2016-10-19T07:08:42.806Z,9.04
2016-10-19T07:09:42.770Z,9.05
2016-10-19T07:10:42.739Z,9.05
2016-10-19T07:11:42.755Z,9.12
2016-10-19T07:12:42.753Z,9.01
2016-10-19T07:13:42.736Z,9.01
2016-10-19T07:14:42.761Z,9.01
2016-10-19T07:15:42.759Z,9.2
2016-10-19T07:16:42.823Z,9.05
2016-10-19T07:17:42.774Z,9.02
2016-10-19T07:18:42.794Z,9.09
2016-10-19T07:19:42.752Z,9.13
2016-10-19T07:20:45.239Z,9.06
2016-10-19T07:21:42.846Z,9.02
2016-10-19T07:22:42.842Z,9.05
2016-10-19T07:23:42.838Z,9.02
2016-10-19T07:24:42.778Z,9.01
2016-10-19T07:25:42.799Z,9.12
2016-10-19T07:26:42.782Z,9.04
2016-10-19T07:27:42.831Z,9.05
2016-10-19T07:28:42.841Z,9.04
2016-10-19T07:29:42.877Z,9.04
2016-10-19T07:30:42.817Z,8.99
2016-10-19T07:31:42.803Z,9.13
2016-10-19T07:32:42.764Z,9.05
2016-10-19T07:33:43.616Z,8.94
2016-10-19T07:34:42.815Z,9.02
2016-10-19T07:35:42.793Z,8.94
2016-10-19T07:36:42.801Z,8.97
2016-10-19T07:37:42.821Z,8.93
2016-10-19T07:38:42.870Z,8.94
2016-10-19T07:39:42.803Z,8.94
2016-10-19T07:40:42.833Z,8.87
2016-10-19T07:41:42.758Z,8.99
2016-10-19T07:42:42.780Z,8.96
2016-10-19T07:43:42.774Z,8.97
2016-10-19T07:44:42.882Z,8.86
2016-10-19T07:45:43.327Z,9.01
2016-10-19T07:46:42.771Z,9.01
2016-10-19T07:47:42.831Z,8.84
2016-10-19T07:48:43.479Z,8.97
2016-10-19T07:49:42.786Z,8.94
2016-10-19T07:50:43.016Z,8.97
2016-10-19T07:51:42.850Z,9.04
2016-10-19T07:52:42.803Z,8.99
2016-10-19T07:53:42.805Z,8.86
2016-10-19T07:54:42.780Z,8.88
2016-10-19T07:55:42.841Z,8.87
2016-10-19T07:56:42.823Z,8.94
2016-10-19T07:57:42.841Z,9.02
2016-10-19T07:58:42.771Z,9.01
2016-10-19T07:59:42.787Z,8.91
2016-10-19T08:00:42.836Z,8.94
2016-10-19T08:01:42.811Z,8.9
2016-10-19T08:02:43.486Z,8.86
2016-10-19T08:03:42.824Z,8.96
2016-10-19T08:04:42.798Z,8.88
2016-10-19T08:05:43.112Z,8.94
2016-10-19T08:06:42.886Z,8.93
2016-10-19T08:07:42.764Z,8.9
2016-10-19T08:08:42.841Z,8.81
2016-10-19T08:09:42.836Z,8.79
2016-10-19T08:10:42.800Z,8.79
2016-10-19T08:11:42.859Z,8.78
2016-10-19T08:12:42.857Z,8.78
2016-10-19T08:13:42.843Z,8.79
2016-10-19T08:14:42.807Z,8.73
2016-10-19T08:15:42.852Z,8.78
2016-10-19T08:16:42.833Z,8.76
2016-10-19T08:17:42.989Z,8.75
2016-10-19T08:18:43.819Z,8.69
2016-10-19T08:19:42.884Z,8.66
2016-10-19T08:20:42.890Z,8.72
2016-10-19T08:21:42.939Z,8.72
2016-10-19T08:22:42.816Z,8.66
2016-10-19T08:23:42.877Z,8.53
2016-10-19T08:24:42.824Z,8.68
2016-10-19T08:25:43.533Z,8.55
2016-10-19T08:26:42.842Z,8.54
2016-10-19T08:27:42.849Z,8.66
2016-10-19T08:28:42.841Z,8.71
2016-10-19T08:29:43.072Z,8.62
2016-10-19T08:30:42.835Z,8.72
2016-10-19T08:31:42.834Z,8.69
2016-10-19T08:32:42.962Z,8.62
2016-10-19T08:33:42.825Z,8.6
2016-10-19T08:34:43.247Z,8.54
2016-10-19T08:35:42.832Z,8.69
2016-10-19T08:36:42.825Z,8.57
2016-10-19T08:37:42.825Z,8.69
2016-10-19T08:38:42.854Z,8.65
2016-10-19T08:39:42.991Z,8.48
2016-10-19T08:40:42.975Z,8.65
2016-10-19T08:41:43.365Z,8.66
2016-10-19T08:42:42.843Z,8.66
2016-10-19T08:43:42.854Z,8.55
2016-10-19T08:44:42.907Z,8.54
2016-10-19T08:45:42.891Z,8.6
2016-10-19T08:46:42.808Z,8.54
2016-10-19T08:47:42.855Z,8.53
2016-10-19T08:48:43.013Z,8.53
2016-10-19T08:49:42.827Z,8.5
2016-10-19T08:50:42.847Z,8.55
2016-10-19T08:51:42.839Z,8.51
2016-10-19T08:52:42.815Z,8.45
2016-10-19T08:53:43.025Z,8.57
2016-10-19T08:54:42.903Z,8.6
2016-10-19T08:55:43.465Z,8.45
2016-10-19T08:56:42.877Z,8.71
2016-10-19T08:57:42.839Z,8.53
2016-10-19T08:58:42.845Z,8.48
2016-10-19T08:59:42.883Z,8.45
2016-10-19T09:00:42.877Z,8.53
2016-10-19T09:01:42.846Z,8.42
2016-10-19T09:02:42.840Z,8.48
2016-10-19T09:03:43.037Z,8.53
2016-10-19T09:04:42.896Z,8.47
2016-10-19T09:05:42.867Z,8.51
2016-10-19T09:06:42.899Z,8.45
2016-10-19T09:07:42.850Z,8.55
2016-10-19T09:08:42.844Z,8.57
2016-10-19T09:09:42.879Z,8.65
2016-10-19T09:10:42.852Z,8.57
2016-10-19T09:11:42.861Z,8.57
2016-10-19T09:12:42.912Z,8.57
2016-10-19T09:13:42.873Z,8.5
2016-10-19T09:14:42.835Z,8.53
2016-10-19T09:15:42.899Z,8.47
2016-10-19T09:16:42.981Z,8.42
2016-10-19T09:17:42.926Z,8.63
2016-10-19T09:18:42.887Z,8.55
2016-10-19T09:19:42.931Z,8.47
2016-10-19T09:20:42.823Z,8.54
2016-10-19T09:21:42.835Z,8.54
2016-10-19T09:22:42.864Z,8.62
2016-10-19T09:23:43.005Z,8.55
2016-10-19T09:24:42.853Z,8.53
2016-10-19T09:25:42.870Z,8.6
2016-10-19T09:26:42.863Z,8.54
2016-10-19T09:27:42.894Z,8.53
2016-10-19T09:28:42.887Z,8.63
2016-10-19T09:29:42.854Z,8.57
2016-10-19T09:30:42.930Z,8.78
2016-10-19T09:31:42.874Z,8.69
2016-10-19T09:32:42.916Z,8.62
2016-10-19T09:33:42.887Z,8.69
2016-10-19T09:34:42.897Z,8.73
2016-10-19T09:35:43.021Z,8.78
2016-10-19T09:36:43.454Z,8.63
2016-10-19T09:37:42.896Z,8.69
2016-10-19T09:38:42.982Z,8.84
2016-10-19T09:39:42.933Z,8.66
2016-10-19T09:40:42.893Z,8.79
2016-10-19T09:41:42.873Z,8.76
2016-10-19T09:42:43.533Z,8.72
2016-10-19T09:43:42.888Z,8.76
2016-10-19T09:44:42.849Z,8.75
2016-10-19T09:45:43.633Z,8.83
2016-10-19T09:46:42.890Z,8.86
2016-10-19T09:47:42.858Z,8.75
2016-10-19T09:48:42.902Z,8.84
2016-10-19T09:49:42.854Z,8.81
2016-10-19T09:50:55.516Z,8.86
2016-10-19T09:51:42.921Z,8.81
2016-10-19T09:52:42.845Z,8.88
2016-10-19T09:53:42.934Z,8.88
2016-10-19T09:54:43.273Z,8.87
2016-10-19T09:55:42.893Z,8.86
2016-10-19T09:56:42.897Z,8.91
2016-10-19T09:57:42.932Z,8.99
2016-10-19T09:58:43.431Z,9.02
2016-10-19T09:59:42.932Z,9.02
2016-10-19T10:00:42.952Z,9.04
2016-10-19T10:01:43.073Z,9.06
2016-10-19T10:02:42.910Z,9.12
2016-10-19T10:03:43.067Z,9.02
2016-10-19T10:04:42.909Z,9.13
2016-10-19T10:05:42.930Z,9.12
2016-10-19T10:06:42.957Z,9.2
2016-10-19T10:07:43.020Z,9.24
2016-10-19T10:08:42.957Z,9.24
2016-10-19T10:09:43.015Z,9.35
2016-10-19T10:10:42.890Z,9.28
2016-10-19T10:11:42.927Z,9.43
2016-10-19T10:12:42.978Z,9.42
2016-10-19T10:13:43.010Z,9.4
2016-10-19T10:14:42.964Z,9.35
2016-10-19T10:15:42.951Z,9.58
2016-10-19T10:16:42.969Z,9.61
2016-10-19T10:17:42.940Z,9.5
2016-10-19T10:18:42.954Z,9.5
2016-10-19T10:19:42.979Z,9.53
2016-10-19T10:20:42.927Z,9.53
2016-10-19T10:21:42.901Z,9.61
2016-10-19T10:22:42.893Z,9.71
2016-10-19T10:23:42.924Z,9.61
2016-10-19T10:24:42.969Z,9.75
2016-10-19T10:25:42.889Z,9.58
2016-10-19T10:26:42.904Z,9.79
2016-10-19T10:27:42.968Z,9.68
2016-10-19T10:28:42.895Z,9.83
2016-10-19T10:29:42.916Z,9.83
2016-10-19T10:30:42.975Z,9.76
2016-10-19T10:31:42.934Z,9.96
2016-10-19T10:32:43.423Z,9.94
2016-10-19T10:33:42.890Z,9.93
2016-10-19T10:34:42.887Z,10
2016-10-19T10:35:42.874Z,9.96
2016-10-19T10:36:43.024Z,10.07
2016-10-19T10:37:43.001Z,10.04
2016-10-19T10:38:42.953Z,10.12
2016-10-19T10:39:42.912Z,10.04
2016-10-19T10:40:42.952Z,10.06
2016-10-19T10:41:42.960Z,10.12
2016-10-19T10:42:43.760Z,10
2016-10-19T10:43:42.944Z,9.97
2016-10-19T10:44:43.405Z,9.94
2016-10-19T10:45:42.955Z,9.71
2016-10-19T10:46:42.891Z,9.85
2016-10-19T10:47:43.250Z,9.79
2016-10-19T10:48:42.902Z,9.68
2016-10-19T10:49:43.127Z,9.73
2016-10-19T10:50:43.127Z,9.73
2016-10-19T10:51:42.969Z,9.68
2016-10-19T10:52:42.950Z,9.66
2016-10-19T10:53:42.940Z,9.67
2016-10-19T10:54:43.256Z,9.66
2016-10-19T10:55:42.891Z,9.73
2016-10-19T10:56:43.381Z,9.79
2016-10-19T10:57:43.874Z,9.63
2016-10-19T10:58:43.016Z,9.67
2016-10-19T10:59:42.934Z,9.67
2016-10-19T11:00:43.045Z,9.61
2016-10-19T11:01:42.953Z,9.57
2016-10-19T11:02:43.064Z,9.7
2016-10-19T11:03:42.978Z,9.58
2016-10-19T11:04:43.050Z,9.7
2016-10-19T11:05:43.011Z,9.79
2016-10-19T11:06:42.943Z,9.66
2016-10-19T11:07:42.949Z,9.81
2016-10-19T11:08:42.997Z,9.86
2016-10-19T11:09:42.954Z,9.79
2016-10-19T11:10:43.113Z,9.91
2016-10-19T11:11:42.952Z,9.93
2016-10-19T11:12:43.020Z,10.21
2016-10-19T11:13:43.023Z,10.07
2016-10-19T11:14:43.001Z,10.18
2016-10-19T11:15:42.974Z,10.34
2016-10-19T11:16:43.161Z,10.34
2016-10-19T11:17:42.924Z,10.36
2016-10-19T11:18:43.046Z,10.39
2016-10-19T11:19:43.002Z,10.52
2016-10-19T11:20:42.928Z,10.56
2016-10-19T11:21:42.953Z,10.58
2016-10-19T11:22:42.931Z,10.84
2016-10-19T11:23:43.154Z,10.99
2016-10-19T11:24:43.028Z,11.17
2016-10-19T11:25:43.226Z,11.28
2016-10-19T11:26:42.993Z,11.39
2016-10-19T11:27:42.985Z,11.36
2016-10-19T11:28:43.317Z,11.46
2016-10-19T11:29:43.568Z,11.67
2016-10-19T11:30:44.014Z,11.57
2016-10-19T11:31:42.997Z,11.75
2016-10-19T11:32:42.935Z,11.71
2016-10-19T11:33:43.048Z,11.75
2016-10-19T11:34:42.933Z,11.8
2016-10-19T11:35:43.067Z,11.7
2016-10-19T11:36:43.324Z,11.82
2016-10-19T11:37:43.004Z,11.78
2016-10-19T11:38:43.314Z,11.82
2016-10-19T11:39:42.959Z,11.78
2016-10-19T11:40:42.971Z,11.71
2016-10-19T11:41:42.971Z,11.67
2016-10-19T11:42:42.964Z,11.67
2016-10-19T11:43:43.346Z,11.65
2016-10-19T11:44:42.952Z,11.68
2016-10-19T11:45:42.996Z,11.77
2016-10-19T11:46:42.966Z,11.68
2016-10-19T11:47:42.964Z,11.68
2016-10-19T11:48:42.978Z,11.65
2016-10-19T11:49:43.078Z,11.65
2016-10-19T11:50:42.978Z,11.7
2016-10-19T11:51:42.974Z,11.65
2016-10-19T11:52:43.304Z,11.62
2016-10-19T11:53:43.009Z,11.57
2016-10-19T11:54:42.966Z,11.56
2016-10-19T11:55:42.964Z,11.59
2016-10-19T11:56:42.942Z,11.68
2016-10-19T11:57:43.038Z,11.62
2016-10-19T11:58:42.989Z,11.59
2016-10-19T11:59:42.963Z,11.5
2016-10-19T12:00:43.211Z,11.53
2016-10-19T12:01:43.782Z,11.54
2016-10-19T12:02:42.982Z,11.56
2016-10-19T12:03:43.191Z,11.5
2016-10-19T12:04:42.967Z,11.53
2016-10-19T12:05:43.054Z,11.67
2016-10-19T12:06:42.960Z,11.71
2016-10-19T12:07:43.027Z,11.72
2016-10-19T12:08:43.017Z,11.64
2016-10-19T12:09:42.976Z,11.82
2016-10-19T12:10:43.057Z,11.77
2016-10-19T12:11:42.993Z,11.86
2016-10-19T12:12:43.324Z,11.77
2016-10-19T12:13:43.030Z,11.82
2016-10-19T12:14:42.975Z,11.85
2016-10-19T12:15:42.966Z,11.74
2016-10-19T12:16:42.989Z,11.7
2016-10-19T12:17:42.966Z,11.65
2016-10-19T12:18:43.016Z,11.61
2016-10-19T12:19:43.107Z,11.52
2016-10-19T12:20:43.000Z,11.35
2016-10-19T12:21:42.991Z,11.38
2016-10-19T12:22:43.166Z,11.35
2016-10-19T12:23:43.106Z,11.1
2016-10-19T12:24:43.017Z,11.02
2016-10-19T12:25:43.087Z,10.99
2016-10-19T12:26:42.975Z,10.84
2016-10-19T12:27:43.009Z,10.6
2016-10-19T12:28:42.988Z,10.42
2016-10-19T12:29:43.047Z,10.22
2016-10-19T12:30:43.144Z,10.04
2016-10-19T12:31:43.166Z,9.78
2016-10-19T12:32:43.003Z,9.81
2016-10-19T12:33:43.185Z,9.7
2016-10-19T12:34:43.009Z,9.56
2016-10-19T12:35:43.021Z,9.61
2016-10-19T12:36:43.336Z,9.49
2016-10-19T12:37:42.998Z,9.6
2016-10-19T12:38:43.045Z,9.6
2016-10-19T12:39:42.984Z,9.3
2016-10-19T12:40:43.018Z,9.31
2016-10-19T12:41:42.974Z,9.34
2016-10-19T12:42:42.987Z,9.13
2016-10-19T12:43:43.027Z,9.06
2016-10-19T12:44:43.012Z,9.1
2016-10-19T12:45:43.015Z,9.18
2016-10-19T12:46:43.069Z,9.02
2016-10-19T12:47:42.984Z,9.05
2016-10-19T12:48:43.141Z,9.01
2016-10-19T12:49:42.984Z,8.96
2016-10-19T12:50:43.224Z,8.94
2016-10-19T12:51:43.786Z,9.06
2016-10-19T12:52:43.061Z,8.87
2016-10-19T12:53:43.073Z,8.87
2016-10-19T12:54:43.115Z,8.97
2016-10-19T12:55:43.034Z,8.93
2016-10-19T12:56:43.041Z,8.81
2016-10-19T12:57:43.067Z,8.73
2016-10-19T12:58:43.107Z,8.72
2016-10-19T12:59:43.151Z,8.81
2016-10-19T13:00:43.046Z,8.91
2016-10-19T13:01:43.143Z,8.91
2016-10-19T13:02:43.113Z,8.76
2016-10-19T13:03:44.729Z,9.02
2016-10-19T13:04:43.165Z,9.01
2016-10-19T13:05:43.072Z,8.86
2016-10-19T13:06:43.697Z,8.86
2016-10-19T13:07:43.071Z,8.73
2016-10-19T13:08:43.107Z,8.83
2016-10-19T13:09:43.133Z,8.71
2016-10-19T13:10:43.159Z,8.86
2016-10-19T13:11:43.039Z,8.83
2016-10-19T13:12:43.038Z,8.68
2016-10-19T13:13:43.060Z,8.68
2016-10-19T13:14:43.240Z,8.69
2016-10-19T13:15:43.225Z,8.63
2016-10-19T13:16:43.117Z,8.68
2016-10-19T13:17:43.011Z,8.62
2016-10-19T13:18:43.122Z,8.62
2016-10-19T13:19:43.039Z,8.68